sensor_id;sensor_type;location;lat;lon;timestamp;P1;durP1;ratioP1;P2;durP2;ratioP2
19384;SDS011;9828;54.122;17.974;2024-01-11T00:02:07;13.77;;;7.83;;
19384;SDS011;9828;54.122;17.974;2024-01-11T00:07:28;17.20;;;9.10;;
19384;SDS011;9828;54.122;17.974;2024-01-11T00:12:50;14.50;;;9.70;;
19384;SDS011;9828;54.122;17.974;2024-01-11T00:18:11;15.27;;;8.27;;
19384;SDS011;9828;54.122;17.974;2024-01-11T00:23:32;15.23;;;9.03;;
19384;SDS011;9828;54.122;17.974;2024-01-11T00:28:54;18.57;;;10.50;;
19384;SDS011;9828;54.122;17.974;2024-01-11T00:34:15;12.00;;;7.67;;
19384;SDS011;9828;54.122;17.974;2024-01-11T00:39:37;11.93;;;7.93;;
19384;SDS011;9828;54.122;17.974;2024-01-11T00:44:58;9.73;;;6.63;;
19384;SDS011;9828;54.122;17.974;2024-01-11T00:50:19;7.83;;;5.67;;
19384;SDS011;9828;54.122;17.974;2024-01-11T00:55:41;7.27;;;4.47;;
19384;SDS011;9828;54.122;17.974;2024-01-11T01:01:02;6.67;;;4.60;;
19384;SDS011;9828;54.122;17.974;2024-01-11T01:06:29;5.97;;;4.83;;
19384;SDS011;9828;54.122;17.974;2024-01-11T01:11:50;5.60;;;4.23;;
19384;SDS011;9828;54.122;17.974;2024-01-11T01:17:12;7.07;;;4.23;;
19384;SDS011;9828;54.122;17.974;2024-01-11T01:22:36;8.60;;;4.87;;
19384;SDS011;9828;54.122;17.974;2024-01-11T01:27:57;6.77;;;4.80;;
19384;SDS011;9828;54.122;17.974;2024-01-11T01:33:21;6.47;;;4.47;;
19384;SDS011;9828;54.122;17.974;2024-01-11T01:38:42;6.43;;;4.53;;
19384;SDS011;9828;54.122;17.974;2024-01-11T01:44:04;10.23;;;5.37;;
19384;SDS011;9828;54.122;17.974;2024-01-11T01:49:25;10.33;;;5.20;;
19384;SDS011;9828;54.122;17.974;2024-01-11T01:54:47;7.50;;;5.10;;
19384;SDS011;9828;54.122;17.974;2024-01-11T02:00:10;8.67;;;5.97;;
19384;SDS011;9828;54.122;17.974;2024-01-11T02:05:33;9.33;;;4.87;;
19384;SDS011;9828;54.122;17.974;2024-01-11T02:10:54;8.40;;;5.17;;
19384;SDS011;9828;54.122;17.974;2024-01-11T02:16:15;9.70;;;5.40;;
19384;SDS011;9828;54.122;17.974;2024-01-11T02:21:37;7.73;;;4.93;;
19384;SDS011;9828;54.122;17.974;2024-01-11T02:26:59;8.90;;;5.00;;
19384;SDS011;9828;54.122;17.974;2024-01-11T02:32:22;7.27;;;4.30;;
19384;SDS011;9828;54.122;17.974;2024-01-11T02:37:43;5.13;;;3.70;;
19384;SDS011;9828;54.122;17.974;2024-01-11T02:43:11;6.37;;;4.13;;
19384;SDS011;9828;54.122;17.974;2024-01-11T02:48:32;8.03;;;4.67;;
19384;SDS011;9828;54.122;17.974;2024-01-11T02:53:54;7.43;;;4.77;;
19384;SDS011;9828;54.122;17.974;2024-01-11T02:59:15;7.93;;;4.70;;
19384;SDS011;9828;54.122;17.974;2024-01-11T03:04:36;8.27;;;4.97;;
19384;SDS011;9828;54.122;17.974;2024-01-11T03:09:58;8.13;;;4.70;;
19384;SDS011;9828;54.122;17.974;2024-01-11T03:15:20;7.43;;;4.30;;
19384;SDS011;9828;54.122;17.974;2024-01-11T03:20:41;5.87;;;3.80;;
19384;SDS011;9828;54.122;17.974;2024-01-11T03:26:02;7.57;;;4.57;;
19384;SDS011;9828;54.122;17.974;2024-01-11T03:31:24;8.00;;;4.50;;
19384;SDS011;9828;54.122;17.974;2024-01-11T03:36:45;5.90;;;4.10;;
19384;SDS011;9828;54.122;17.974;2024-01-11T03:42:07;6.73;;;4.10;;
19384;SDS011;9828;54.122;17.974;2024-01-11T03:47:28;9.50;;;4.03;;
19384;SDS011;9828;54.122;17.974;2024-01-11T03:52:49;5.40;;;3.80;;
19384;SDS011;9828;54.122;17.974;2024-01-11T03:58:10;8.03;;;4.97;;
19384;SDS011;9828;54.122;17.974;2024-01-11T04:03:32;11.93;;;7.07;;
19384;SDS011;9828;54.122;17.974;2024-01-11T04:08:53;10.57;;;5.90;;
19384;SDS011;9828;54.122;17.974;2024-01-11T04:14:16;11.03;;;5.17;;
19384;SDS011;9828;54.122;17.974;2024-01-11T04:19:39;7.63;;;4.67;;
19384;SDS011;9828;54.122;17.974;2024-01-11T04:25:00;8.87;;;5.97;;
19384;SDS011;9828;54.122;17.974;2024-01-11T04:30:21;6.87;;;4.57;;
19384;SDS011;9828;54.122;17.974;2024-01-11T04:35:42;6.20;;;4.17;;
19384;SDS011;9828;54.122;17.974;2024-01-11T04:41:07;6.17;;;4.30;;
19384;SDS011;9828;54.122;17.974;2024-01-11T04:46:34;7.40;;;4.23;;
19384;SDS011;9828;54.122;17.974;2024-01-11T04:51:55;6.23;;;4.37;;
19384;SDS011;9828;54.122;17.974;2024-01-11T04:57:17;8.47;;;4.47;;
19384;SDS011;9828;54.122;17.974;2024-01-11T05:02:38;8.27;;;4.40;;
19384;SDS011;9828;54.122;17.974;2024-01-11T05:07:59;6.07;;;4.37;;
19384;SDS011;9828;54.122;17.974;2024-01-11T05:13:21;8.60;;;4.00;;
19384;SDS011;9828;54.122;17.974;2024-01-11T05:18:43;8.47;;;4.43;;
19384;SDS011;9828;54.122;17.974;2024-01-11T05:24:06;10.67;;;5.50;;
19384;SDS011;9828;54.122;17.974;2024-01-11T05:29:29;18.57;;;7.90;;
19384;SDS011;9828;54.122;17.974;2024-01-11T05:34:51;8.30;;;5.13;;
19384;SDS011;9828;54.122;17.974;2024-01-11T05:40:13;22.60;;;8.10;;
19384;SDS011;9828;54.122;17.974;2024-01-11T05:45:34;11.53;;;5.63;;
19384;SDS011;9828;54.122;17.974;2024-01-11T05:50:59;15.13;;;7.30;;
19384;SDS011;9828;54.122;17.974;2024-01-11T05:56:21;21.80;;;7.20;;
19384;SDS011;9828;54.122;17.974;2024-01-11T06:01:43;14.77;;;6.43;;
19384;SDS011;9828;54.122;17.974;2024-01-11T06:07:04;12.57;;;6.03;;
19384;SDS011;9828;54.122;17.974;2024-01-11T06:12:26;11.40;;;5.17;;
19384;SDS011;9828;54.122;17.974;2024-01-11T06:17:47;11.33;;;5.83;;
19384;SDS011;9828;54.122;17.974;2024-01-11T06:23:08;11.37;;;6.00;;
19384;SDS011;9828;54.122;17.974;2024-01-11T06:28:29;11.90;;;6.73;;
19384;SDS011;9828;54.122;17.974;2024-01-11T06:33:52;11.53;;;6.90;;
19384;SDS011;9828;54.122;17.974;2024-01-11T06:39:13;11.87;;;7.37;;
19384;SDS011;9828;54.122;17.974;2024-01-11T06:44:34;11.13;;;6.70;;
19384;SDS011;9828;54.122;17.974;2024-01-11T06:49:56;11.13;;;5.83;;
19384;SDS011;9828;54.122;17.974;2024-01-11T06:55:17;10.43;;;6.70;;
19384;SDS011;9828;54.122;17.974;2024-01-11T07:00:40;17.97;;;7.30;;
19384;SDS011;9828;54.122;17.974;2024-01-11T07:06:05;15.33;;;7.50;;
19384;SDS011;9828;54.122;17.974;2024-01-11T07:11:27;15.73;;;7.70;;
19384;SDS011;9828;54.122;17.974;2024-01-11T07:16:48;13.77;;;7.87;;
19384;SDS011;9828;54.122;17.974;2024-01-11T07:22:10;11.23;;;7.67;;
19384;SDS011;9828;54.122;17.974;2024-01-11T07:27:31;14.80;;;7.83;;
19384;SDS011;9828;54.122;17.974;2024-01-11T07:32:53;19.20;;;9.57;;
19384;SDS011;9828;54.122;17.974;2024-01-11T07:38:14;20.10;;;9.03;;
19384;SDS011;9828;54.122;17.974;2024-01-11T07:43:36;12.77;;;7.43;;
19384;SDS011;9828;54.122;17.974;2024-01-11T07:48:57;14.90;;;8.67;;
19384;SDS011;9828;54.122;17.974;2024-01-11T07:54:19;15.20;;;9.30;;
19384;SDS011;9828;54.122;17.974;2024-01-11T07:59:41;14.67;;;8.27;;
19384;SDS011;9828;54.122;17.974;2024-01-11T08:05:02;13.97;;;8.40;;
19384;SDS011;9828;54.122;17.974;2024-01-11T08:10:23;10.60;;;6.77;;
19384;SDS011;9828;54.122;17.974;2024-01-11T08:15:45;13.10;;;8.03;;
19384;SDS011;9828;54.122;17.974;2024-01-11T08:21:07;16.40;;;8.07;;
19384;SDS011;9828;54.122;17.974;2024-01-11T08:26:30;12.33;;;8.17;;
19384;SDS011;9828;54.122;17.974;2024-01-11T08:31:51;15.13;;;7.50;;
19384;SDS011;9828;54.122;17.974;2024-01-11T08:37:13;16.20;;;9.00;;
19384;SDS011;9828;54.122;17.974;2024-01-11T08:42:35;18.97;;;9.77;;
19384;SDS011;9828;54.122;17.974;2024-01-11T08:47:56;13.93;;;7.97;;
19384;SDS011;9828;54.122;17.974;2024-01-11T08:53:18;17.80;;;10.13;;
19384;SDS011;9828;54.122;17.974;2024-01-11T08:58:40;21.60;;;11.30;;
19384;SDS011;9828;54.122;17.974;2024-01-11T09:04:02;17.13;;;9.53;;
19384;SDS011;9828;54.122;17.974;2024-01-11T09:09:25;21.53;;;11.20;;
19384;SDS011;9828;54.122;17.974;2024-01-11T09:14:46;31.93;;;15.40;;
19384;SDS011;9828;54.122;17.974;2024-01-11T09:20:08;30.57;;;18.70;;
19384;SDS011;9828;54.122;17.974;2024-01-11T09:25:30;21.63;;;11.27;;
19384;SDS011;9828;54.122;17.974;2024-01-11T09:30:51;16.83;;;10.10;;
19384;SDS011;9828;54.122;17.974;2024-01-11T09:36:12;16.33;;;8.63;;
19384;SDS011;9828;54.122;17.974;2024-01-11T09:41:36;9.97;;;5.93;;
19384;SDS011;9828;54.122;17.974;2024-01-11T09:46:59;11.37;;;6.17;;
19384;SDS011;9828;54.122;17.974;2024-01-11T09:52:22;11.17;;;4.90;;
19384;SDS011;9828;54.122;17.974;2024-01-11T09:57:50;9.70;;;6.47;;
19384;SDS011;9828;54.122;17.974;2024-01-11T10:03:13;16.63;;;10.43;;
19384;SDS011;9828;54.122;17.974;2024-01-11T10:08:35;18.53;;;9.07;;
19384;SDS011;9828;54.122;17.974;2024-01-11T10:13:57;17.20;;;8.17;;
19384;SDS011;9828;54.122;17.974;2024-01-11T10:19:19;14.83;;;8.13;;
19384;SDS011;9828;54.122;17.974;2024-01-11T10:24:42;11.10;;;5.80;;
19384;SDS011;9828;54.122;17.974;2024-01-11T10:30:06;11.90;;;6.17;;
19384;SDS011;9828;54.122;17.974;2024-01-11T10:35:28;13.20;;;6.37;;
19384;SDS011;9828;54.122;17.974;2024-01-11T10:40:50;12.33;;;6.47;;
19384;SDS011;9828;54.122;17.974;2024-01-11T10:46:13;14.83;;;7.00;;
19384;SDS011;9828;54.122;17.974;2024-01-11T10:51:37;9.47;;;5.37;;
19384;SDS011;9828;54.122;17.974;2024-01-11T10:57:00;12.83;;;6.07;;
19384;SDS011;9828;54.122;17.974;2024-01-11T11:02:25;12.83;;;5.80;;
19384;SDS011;9828;54.122;17.974;2024-01-11T11:07:47;11.90;;;6.33;;
19384;SDS011;9828;54.122;17.974;2024-01-11T11:13:11;18.93;;;5.23;;
19384;SDS011;9828;54.122;17.974;2024-01-11T11:18:37;15.70;;;7.23;;
19384;SDS011;9828;54.122;17.974;2024-01-11T11:23:59;10.63;;;6.17;;
19384;SDS011;9828;54.122;17.974;2024-01-11T11:29:20;13.33;;;6.33;;
19384;SDS011;9828;54.122;17.974;2024-01-11T11:34:43;14.50;;;5.90;;
19384;SDS011;9828;54.122;17.974;2024-01-11T11:40:08;7.67;;;4.63;;
19384;SDS011;9828;54.122;17.974;2024-01-11T11:45:31;11.93;;;5.93;;
19384;SDS011;9828;54.122;17.974;2024-01-11T11:56:34;7.20;;;4.40;;
19384;SDS011;9828;54.122;17.974;2024-01-11T12:01:57;13.17;;;5.33;;
19384;SDS011;9828;54.122;17.974;2024-01-11T12:07:20;10.83;;;5.50;;
19384;SDS011;9828;54.122;17.974;2024-01-11T12:12:43;12.30;;;5.63;;
19384;SDS011;9828;54.122;17.974;2024-01-11T12:18:05;11.90;;;6.20;;
19384;SDS011;9828;54.122;17.974;2024-01-11T12:23:27;14.00;;;5.80;;
19384;SDS011;9828;54.122;17.974;2024-01-11T12:28:53;11.97;;;5.60;;
19384;SDS011;9828;54.122;17.974;2024-01-11T12:34:15;12.30;;;6.00;;
19384;SDS011;9828;54.122;17.974;2024-01-11T12:39:37;10.60;;;6.07;;
19384;SDS011;9828;54.122;17.974;2024-01-11T12:44:59;10.70;;;6.00;;
19384;SDS011;9828;54.122;17.974;2024-01-11T12:50:21;10.90;;;6.10;;
19384;SDS011;9828;54.122;17.974;2024-01-11T12:55:47;7.17;;;5.07;;
19384;SDS011;9828;54.122;17.974;2024-01-11T13:01:10;8.17;;;4.83;;
19384;SDS011;9828;54.122;17.974;2024-01-11T13:06:36;8.83;;;4.60;;
19384;SDS011;9828;54.122;17.974;2024-01-11T13:11:58;8.23;;;4.37;;
19384;SDS011;9828;54.122;17.974;2024-01-11T13:17:20;10.80;;;5.17;;
19384;SDS011;9828;54.122;17.974;2024-01-11T13:22:42;12.37;;;5.93;;
19384;SDS011;9828;54.122;17.974;2024-01-11T13:28:03;13.17;;;5.47;;
19384;SDS011;9828;54.122;17.974;2024-01-11T13:33:24;18.33;;;7.03;;
19384;SDS011;9828;54.122;17.974;2024-01-11T13:38:46;18.03;;;7.70;;
19384;SDS011;9828;54.122;17.974;2024-01-11T13:44:07;15.60;;;6.60;;
19384;SDS011;9828;54.122;17.974;2024-01-11T13:49:30;15.23;;;7.03;;
19384;SDS011;9828;54.122;17.974;2024-01-11T13:54:52;11.50;;;6.60;;
19384;SDS011;9828;54.122;17.974;2024-01-11T14:00:13;18.37;;;8.67;;
19384;SDS011;9828;54.122;17.974;2024-01-11T14:05:34;18.73;;;9.00;;
19384;SDS011;9828;54.122;17.974;2024-01-11T14:10:57;29.47;;;12.73;;
19384;SDS011;9828;54.122;17.974;2024-01-11T14:16:18;30.23;;;13.10;;
19384;SDS011;9828;54.122;17.974;2024-01-11T14:21:40;22.00;;;9.70;;
19384;SDS011;9828;54.122;17.974;2024-01-11T14:27:01;9.77;;;5.67;;
19384;SDS011;9828;54.122;17.974;2024-01-11T14:32:22;11.50;;;4.93;;
19384;SDS011;9828;54.122;17.974;2024-01-11T14:37:48;7.07;;;4.40;;
19384;SDS011;9828;54.122;17.974;2024-01-11T14:43:10;7.03;;;4.93;;
19384;SDS011;9828;54.122;17.974;2024-01-11T14:48:31;8.37;;;4.67;;
19384;SDS011;9828;54.122;17.974;2024-01-11T14:53:53;10.70;;;5.93;;
19384;SDS011;9828;54.122;17.974;2024-01-11T14:59:16;12.07;;;7.07;;
19384;SDS011;9828;54.122;17.974;2024-01-11T15:04:38;10.23;;;5.60;;
19384;SDS011;9828;54.122;17.974;2024-01-11T15:09:59;14.60;;;6.87;;
19384;SDS011;9828;54.122;17.974;2024-01-11T15:15:20;15.20;;;7.73;;
19384;SDS011;9828;54.122;17.974;2024-01-11T15:20:42;17.67;;;8.00;;
19384;SDS011;9828;54.122;17.974;2024-01-11T15:26:03;19.30;;;8.90;;
19384;SDS011;9828;54.122;17.974;2024-01-11T15:31:26;34.70;;;14.33;;
19384;SDS011;9828;54.122;17.974;2024-01-11T15:36:48;60.60;;;22.60;;
19384;SDS011;9828;54.122;17.974;2024-01-11T15:42:09;52.40;;;22.63;;
19384;SDS011;9828;54.122;17.974;2024-01-11T15:47:32;43.27;;;21.10;;
19384;SDS011;9828;54.122;17.974;2024-01-11T15:52:54;23.67;;;12.03;;
19384;SDS011;9828;54.122;17.974;2024-01-11T15:58:15;26.93;;;12.83;;
19384;SDS011;9828;54.122;17.974;2024-01-11T16:03:38;18.57;;;9.13;;
19384;SDS011;9828;54.122;17.974;2024-01-11T16:09:02;23.73;;;11.63;;
19384;SDS011;9828;54.122;17.974;2024-01-11T16:14:28;31.97;;;12.27;;
19384;SDS011;9828;54.122;17.974;2024-01-11T16:19:49;12.07;;;5.93;;
19384;SDS011;9828;54.122;17.974;2024-01-11T16:25:10;9.23;;;4.60;;
19384;SDS011;9828;54.122;17.974;2024-01-11T16:30:32;26.30;;;9.70;;
19384;SDS011;9828;54.122;17.974;2024-01-11T16:35:53;13.10;;;6.53;;
19384;SDS011;9828;54.122;17.974;2024-01-11T16:41:18;30.20;;;12.47;;
19384;SDS011;9828;54.122;17.974;2024-01-11T16:46:39;10.70;;;5.37;;
19384;SDS011;9828;54.122;17.974;2024-01-11T16:52:00;10.33;;;4.23;;
19384;SDS011;9828;54.122;17.974;2024-01-11T16:57:25;14.33;;;6.30;;
19384;SDS011;9828;54.122;17.974;2024-01-11T17:02:46;20.73;;;8.27;;
19384;SDS011;9828;54.122;17.974;2024-01-11T17:08:07;13.27;;;5.60;;
19384;SDS011;9828;54.122;17.974;2024-01-11T17:13:29;10.47;;;3.90;;
19384;SDS011;9828;54.122;17.974;2024-01-11T17:18:50;12.63;;;4.27;;
19384;SDS011;9828;54.122;17.974;2024-01-11T17:24:12;15.27;;;5.93;;
19384;SDS011;9828;54.122;17.974;2024-01-11T17:29:39;20.10;;;10.33;;
19384;SDS011;9828;54.122;17.974;2024-01-11T17:35:02;21.47;;;12.23;;
19384;SDS011;9828;54.122;17.974;2024-01-11T17:40:24;18.83;;;10.60;;
19384;SDS011;9828;54.122;17.974;2024-01-11T17:45:45;19.30;;;9.03;;
19384;SDS011;9828;54.122;17.974;2024-01-11T17:51:09;22.07;;;10.07;;
19384;SDS011;9828;54.122;17.974;2024-01-11T17:56:32;22.10;;;10.70;;
19384;SDS011;9828;54.122;17.974;2024-01-11T18:01:54;25.03;;;10.53;;
19384;SDS011;9828;54.122;17.974;2024-01-11T18:07:16;20.00;;;11.03;;
19384;SDS011;9828;54.122;17.974;2024-01-11T18:12:37;28.80;;;14.77;;
19384;SDS011;9828;54.122;17.974;2024-01-11T18:17:58;31.57;;;14.67;;
19384;SDS011;9828;54.122;17.974;2024-01-11T18:23:20;27.83;;;13.20;;
19384;SDS011;9828;54.122;17.974;2024-01-11T18:28:41;24.47;;;11.07;;
19384;SDS011;9828;54.122;17.974;2024-01-11T18:34:03;22.90;;;10.73;;
19384;SDS011;9828;54.122;17.974;2024-01-11T18:39:24;18.27;;;9.70;;
19384;SDS011;9828;54.122;17.974;2024-01-11T18:44:45;23.70;;;11.40;;
19384;SDS011;9828;54.122;17.974;2024-01-11T18:50:08;17.30;;;8.27;;
19384;SDS011;9828;54.122;17.974;2024-01-11T18:55:29;33.17;;;13.47;;
19384;SDS011;9828;54.122;17.974;2024-01-11T19:00:51;38.20;;;18.73;;
19384;SDS011;9828;54.122;17.974;2024-01-11T19:06:13;42.00;;;23.37;;
19384;SDS011;9828;54.122;17.974;2024-01-11T19:11:36;32.70;;;17.37;;
19384;SDS011;9828;54.122;17.974;2024-01-11T19:16:57;29.67;;;15.30;;
19384;SDS011;9828;54.122;17.974;2024-01-11T19:22:19;21.10;;;11.70;;
19384;SDS011;9828;54.122;17.974;2024-01-11T19:27:40;21.93;;;8.23;;
19384;SDS011;9828;54.122;17.974;2024-01-11T19:33:02;14.67;;;7.27;;
19384;SDS011;9828;54.122;17.974;2024-01-11T19:38:23;28.47;;;12.10;;
19384;SDS011;9828;54.122;17.974;2024-01-11T19:43:45;39.87;;;17.83;;
19384;SDS011;9828;54.122;17.974;2024-01-11T19:49:06;58.87;;;28.10;;
19384;SDS011;9828;54.122;17.974;2024-01-11T19:54:27;64.80;;;28.63;;
19384;SDS011;9828;54.122;17.974;2024-01-11T19:59:49;46.87;;;21.80;;
19384;SDS011;9828;54.122;17.974;2024-01-11T20:05:11;40.87;;;19.07;;
19384;SDS011;9828;54.122;17.974;2024-01-11T20:10:34;47.77;;;20.03;;
19384;SDS011;9828;54.122;17.974;2024-01-11T20:15:55;35.53;;;14.43;;
19384;SDS011;9828;54.122;17.974;2024-01-11T20:21:17;22.60;;;10.17;;
19384;SDS011;9828;54.122;17.974;2024-01-11T20:26:39;27.97;;;12.97;;
19384;SDS011;9828;54.122;17.974;2024-01-11T20:32:01;16.60;;;8.47;;
19384;SDS011;9828;54.122;17.974;2024-01-11T20:37:24;16.07;;;6.47;;
19384;SDS011;9828;54.122;17.974;2024-01-11T20:42:45;17.40;;;7.23;;
19384;SDS011;9828;54.122;17.974;2024-01-11T20:48:06;15.20;;;6.53;;
19384;SDS011;9828;54.122;17.974;2024-01-11T20:53:28;22.93;;;8.10;;
19384;SDS011;9828;54.122;17.974;2024-01-11T20:58:49;16.50;;;7.13;;
19384;SDS011;9828;54.122;17.974;2024-01-11T21:04:10;27.30;;;10.07;;
19384;SDS011;9828;54.122;17.974;2024-01-11T21:09:33;26.67;;;11.67;;
19384;SDS011;9828;54.122;17.974;2024-01-11T21:14:54;22.80;;;10.83;;
19384;SDS011;9828;54.122;17.974;2024-01-11T21:20:15;21.70;;;8.87;;
19384;SDS011;9828;54.122;17.974;2024-01-11T21:25:36;20.23;;;8.10;;
19384;SDS011;9828;54.122;17.974;2024-01-11T21:30:58;17.97;;;7.67;;
19384;SDS011;9828;54.122;17.974;2024-01-11T21:36:20;17.30;;;6.87;;
19384;SDS011;9828;54.122;17.974;2024-01-11T21:41:45;18.57;;;6.60;;
19384;SDS011;9828;54.122;17.974;2024-01-11T21:47:06;17.83;;;5.60;;
19384;SDS011;9828;54.122;17.974;2024-01-11T21:52:27;15.13;;;5.83;;
19384;SDS011;9828;54.122;17.974;2024-01-11T21:57:48;15.97;;;5.87;;
19384;SDS011;9828;54.122;17.974;2024-01-11T22:03:11;14.60;;;5.50;;
19384;SDS011;9828;54.122;17.974;2024-01-11T22:08:32;11.87;;;5.33;;
19384;SDS011;9828;54.122;17.974;2024-01-11T22:13:53;13.33;;;4.53;;
19384;SDS011;9828;54.122;17.974;2024-01-11T22:19:15;13.93;;;5.07;;
19384;SDS011;9828;54.122;17.974;2024-01-11T22:24:36;13.50;;;5.63;;
19384;SDS011;9828;54.122;17.974;2024-01-11T22:29:58;15.20;;;6.17;;
19384;SDS011;9828;54.122;17.974;2024-01-11T22:35:20;11.07;;;4.27;;
19384;SDS011;9828;54.122;17.974;2024-01-11T22:40:42;13.20;;;5.03;;
19384;SDS011;9828;54.122;17.974;2024-01-11T22:46:03;16.20;;;5.17;;
19384;SDS011;9828;54.122;17.974;2024-01-11T22:51:25;13.07;;;4.50;;
19384;SDS011;9828;54.122;17.974;2024-01-11T22:56:46;10.67;;;4.80;;
19384;SDS011;9828;54.122;17.974;2024-01-11T23:02:10;11.30;;;5.13;;
19384;SDS011;9828;54.122;17.974;2024-01-11T23:07:33;10.90;;;4.60;;
19384;SDS011;9828;54.122;17.974;2024-01-11T23:12:57;14.43;;;5.77;;
19384;SDS011;9828;54.122;17.974;2024-01-11T23:18:18;12.53;;;5.87;;
19384;SDS011;9828;54.122;17.974;2024-01-11T23:23:40;13.17;;;5.93;;
19384;SDS011;9828;54.122;17.974;2024-01-11T23:29:02;14.97;;;5.57;;
19384;SDS011;9828;54.122;17.974;2024-01-11T23:34:24;14.20;;;6.33;;
19384;SDS011;9828;54.122;17.974;2024-01-11T23:39:46;12.17;;;6.57;;
19384;SDS011;9828;54.122;17.974;2024-01-11T23:45:08;15.67;;;6.60;;
19384;SDS011;9828;54.122;17.974;2024-01-11T23:50:30;18.33;;;7.20;;
19384;SDS011;9828;54.122;17.974;2024-01-11T23:55:51;14.03;;;6.30;;
